Aérodrome :
LOGIN :

S'inscrire | Disclaimer

   EN    FR    IT 

 










Légende :    VFR   VFR Marginal   IFR   IFR Intensif   IFR Très Intensif
Visi : 
Plafond : 
>= 8 km
>= 3000ft
5 à 8 km
1000 à 3000 ft
1500m à 5 km
500 à 1000 ft
800 à 1500m
200 à 500 ft
< 800m
< 200 ft
Symboles :   Orages  Brouillard  Fortes neiges  Fortes précipitations  Vent > 20 kt
SIGMETs :   Divers  Orages  Givrage  Turbulence  Onde Orograph.  Cendres Volcan.







- Altitude de l'aérodrome : 821 ft
- Code IATA : LYS
- Voir les cartes d'approche


LFLL - Lyon St Exupéry / Satolas

DERNIER METAR :
  • 220530Z 00000KT 0400 R35L/0450D R17R/0275D R35R/0750U R17L/0550N FG SCT001 06/05 Q1022 NOSIG

METARs EXPIRÉS :
  • 220500Z 11002KT 3500 1400N R35L/0800D R17R/1800D R35R/P2000 R17L/P2000 BR SCT045 07/06 Q1022 NOSIG
  • 220430Z 00000KT 4000 BR FEW020 SCT046 07/06 Q1022 NOSIG
  • 220400Z 00000KT 4000 BR FEW020 08/06 Q1022 NOSIG
  • 220330Z 00000KT 6000 FEW020 SCT046 08/07 Q1021 NOSIG
  • 220300Z 00000KT 6000 BKN046 09/08 Q1021 NOSIG

TAF TAF LFLL
Valide du 22 à 06h jusqu'au 23 à 12h UTC


220500Z 2206/2312 VRB03KT 9999 SCT040
TEMPO 2206/2210 3000 BR
PROB30
TEMPO 2206/2209 0400 FG BKN002
TEMPO 2303/2308 4000 BR
BECMG 2309/2311 18015G25KT CAVOK
Pas de NOTAMs connus pour ce terrain.



MET'MAP, la Météo Aéronautique d'un coup d'oeil ! - Copyright ORBIFLY Décembre 2007 - Disclaimer

ORBIFLY MET'MAP TEAM :

Programmation & Développement : Alexandra Zaïnal
Conception & Développement : Baudouin d'Aumeries
Co-Programmation & Développement : Marc-Olivier Méhu
Soutien technique & logistique : Manuel Goepfert

Contact : metmap@orbifly.com




SOURCES & CREDITS :

   NOAA